createdAt,value
2018-02-08T00:00:41.491Z,24.80
2018-02-08T00:01:41.492Z,24.30
2018-02-08T00:02:41.476Z,24.00
2018-02-08T00:03:41.481Z,24.20
2018-02-08T00:04:41.489Z,24.00
2018-02-08T00:05:41.592Z,23.50
2018-02-08T00:06:41.731Z,23.80
2018-02-08T00:09:42.009Z,24.60
2018-02-08T00:10:42.429Z,23.50
2018-02-08T00:11:41.552Z,23.80
2018-02-08T00:12:41.550Z,23.10
2018-02-08T00:13:41.724Z,24.20
2018-02-08T00:14:41.572Z,24.40
2018-02-08T00:15:41.579Z,24.20
2018-02-08T00:16:41.583Z,23.90
2018-02-08T00:17:41.589Z,23.30
2018-02-08T00:18:41.605Z,23.40
2018-02-08T00:19:41.606Z,22.70
2018-02-08T00:20:41.620Z,24.70
2018-02-08T00:21:41.621Z,23.70
2018-02-08T00:22:41.783Z,23.40
2018-02-08T00:23:41.870Z,23.50
2018-02-08T00:26:42.202Z,23.30
2018-02-08T00:28:42.474Z,24.20
2018-02-08T00:29:41.701Z,23.30
2018-02-08T00:30:41.720Z,23.10
2018-02-08T00:31:41.734Z,23.70
2018-02-08T00:32:41.715Z,23.40
2018-02-08T00:33:41.720Z,22.80
2018-02-08T00:34:41.729Z,22.70
2018-02-08T00:35:41.837Z,23.40
2018-02-08T00:36:41.756Z,23.60
2018-02-08T00:37:41.754Z,23.10
2018-02-08T00:38:41.830Z,23.90
2018-02-08T00:39:41.771Z,23.20
2018-02-08T00:40:41.827Z,22.90
2018-02-08T00:41:41.786Z,23.90
2018-02-08T00:42:42.352Z,23.80
2018-02-08T00:44:41.810Z,22.60
2018-02-08T00:45:41.823Z,23.40
2018-02-08T00:46:41.905Z,23.30
2018-02-08T00:47:42.480Z,23.60
2018-02-08T00:48:41.912Z,22.90
2018-02-08T00:49:41.852Z,23.40
2018-02-08T00:50:41.860Z,24.50
2018-02-08T00:51:41.867Z,24.10
2018-02-08T00:52:41.874Z,23.50
2018-02-08T00:53:41.881Z,22.50
2018-02-08T00:54:41.889Z,23.70
2018-02-08T00:55:41.947Z,22.90
2018-02-08T00:56:42.009Z,23.70
2018-02-08T00:58:41.943Z,23.60
2018-02-08T00:59:42.701Z,23.90
2018-02-08T01:00:41.949Z,23.80
2018-02-08T01:01:42.022Z,23.10
2018-02-08T01:02:41.953Z,23.70
2018-02-08T01:03:41.971Z,24.40
2018-02-08T01:04:41.975Z,23.00
2018-02-08T01:05:41.978Z,24.80
2018-02-08T01:06:42.039Z,23.50
2018-02-08T01:08:42.002Z,23.90
2018-02-08T01:09:42.014Z,24.10
2018-02-08T01:10:42.021Z,23.30
2018-02-08T01:11:42.028Z,22.80
2018-02-08T01:12:42.036Z,23.70
2018-02-08T01:14:42.110Z,23.40
2018-02-08T01:15:42.058Z,23.80
2018-02-08T01:16:42.067Z,24.10
2018-02-08T01:17:42.076Z,23.80
2018-02-08T01:18:42.081Z,23.00
2018-02-08T01:19:42.112Z,23.70
2018-02-08T01:20:42.100Z,22.90
2018-02-08T01:21:42.107Z,24.40
2018-02-08T01:22:42.116Z,23.40
2018-02-08T01:23:42.129Z,24.00
2018-02-08T01:24:42.322Z,23.20
2018-02-08T01:25:42.187Z,23.70
2018-02-08T01:26:42.151Z,25.20
2018-02-08T01:27:42.158Z,22.40
2018-02-08T01:28:42.271Z,24.30
2018-02-08T01:29:42.923Z,24.40
2018-02-08T01:30:42.473Z,23.40
2018-02-08T01:31:42.448Z,24.00
2018-02-08T01:32:42.223Z,23.70
2018-02-08T01:33:42.202Z,23.60
2018-02-08T01:34:42.260Z,24.00
2018-02-08T01:35:42.218Z,23.40
2018-02-08T01:36:42.235Z,23.70
2018-02-08T01:37:42.562Z,24.70
2018-02-08T01:38:42.244Z,23.60
2018-02-08T01:39:42.260Z,23.90
2018-02-08T01:41:42.924Z,24.00
2018-02-08T01:42:42.301Z,24.50
2018-02-08T01:44:42.381Z,24.00
2018-02-08T01:45:42.505Z,24.00
2018-02-08T01:47:42.979Z,24.50
2018-02-08T01:48:43.048Z,24.50
2018-02-08T01:49:43.845Z,24.70
2018-02-08T01:50:42.340Z,24.00
2018-02-08T01:51:42.347Z,25.20
2018-02-08T01:52:42.362Z,24.00
2018-02-08T01:53:42.361Z,24.70
2018-02-08T01:54:42.368Z,24.00
2018-02-08T01:55:42.380Z,23.80
2018-02-08T01:59:42.916Z,23.60
2018-02-08T02:00:42.416Z,24.50
2018-02-08T02:01:42.429Z,23.30
2018-02-08T02:02:42.577Z,23.30
2018-02-08T02:03:42.691Z,23.00
2018-02-08T02:04:42.570Z,24.20
2018-02-08T02:05:42.462Z,24.30
2018-02-08T02:06:42.466Z,24.20
2018-02-08T02:07:42.473Z,24.30
2018-02-08T02:08:42.492Z,24.30
2018-02-08T02:09:42.549Z,24.00
2018-02-08T02:10:42.496Z,23.70
2018-02-08T02:11:42.529Z,23.90
2018-02-08T02:12:42.510Z,24.90
2018-02-08T02:13:42.533Z,23.60
2018-02-08T02:14:42.557Z,24.40
2018-02-08T02:15:42.535Z,23.60
2018-02-08T02:17:42.984Z,24.50
2018-02-08T02:19:43.090Z,23.90
2018-02-08T02:20:42.600Z,24.30
2018-02-08T02:21:42.580Z,24.50
2018-02-08T02:22:42.827Z,24.30
2018-02-08T02:23:42.599Z,23.20
2018-02-08T02:24:42.606Z,23.50
2018-02-08T02:25:42.613Z,23.60
2018-02-08T02:27:43.073Z,24.10
2018-02-08T02:28:42.656Z,24.00
2018-02-08T02:29:42.759Z,23.10
2018-02-08T02:30:42.765Z,23.30
2018-02-08T02:31:42.663Z,23.70
2018-02-08T02:32:42.673Z,24.80
2018-02-08T02:33:42.876Z,23.40
2018-02-08T02:34:42.939Z,24.10
2018-02-08T02:35:43.046Z,24.30
2018-02-08T02:36:43.527Z,24.30
2018-02-08T02:37:42.773Z,23.50
2018-02-08T02:38:42.820Z,24.30
2018-02-08T02:39:42.726Z,24.10
2018-02-08T02:40:42.739Z,24.10
2018-02-08T02:41:42.983Z,24.70
2018-02-08T02:42:43.685Z,24.10
2018-02-08T02:43:43.535Z,23.10
2018-02-08T02:44:43.199Z,23.50
2018-02-08T02:45:42.976Z,23.60
2018-02-08T02:46:42.884Z,22.70
2018-02-08T02:47:43.359Z,24.40
2018-02-08T02:48:42.967Z,24.40
2018-02-08T02:49:43.186Z,22.10
2018-02-08T02:51:42.878Z,22.70
2018-02-08T02:52:42.827Z,25.20
2018-02-08T02:53:42.834Z,24.30
2018-02-08T02:54:42.870Z,24.90
2018-02-08T02:55:42.851Z,24.00
2018-02-08T02:56:42.867Z,23.40
2018-02-08T02:57:42.919Z,23.40
2018-02-08T02:58:42.931Z,23.90
2018-02-08T02:59:42.956Z,23.20
2018-02-08T03:00:43.041Z,23.00
2018-02-08T03:01:42.897Z,23.00
2018-02-08T03:02:42.906Z,23.20
2018-02-08T03:03:42.913Z,23.50
2018-02-08T03:04:42.945Z,22.70
2018-02-08T03:06:42.986Z,23.30
2018-02-08T03:07:43.398Z,22.80
2018-02-08T03:08:44.268Z,24.40
2018-02-08T03:09:42.968Z,23.10
2018-02-08T03:10:43.060Z,22.80
2018-02-08T03:11:44.954Z,23.10
2018-02-08T03:12:43.846Z,23.30
2018-02-08T03:13:43.153Z,22.60
2018-02-08T03:14:43.030Z,24.40
2018-02-08T03:16:43.017Z,23.70
2018-02-08T03:18:43.358Z,22.90
2018-02-08T03:19:43.453Z,23.20
2018-02-08T03:20:43.046Z,22.40
2018-02-08T03:21:43.062Z,22.60
2018-02-08T03:22:43.142Z,22.20
2018-02-08T03:23:43.071Z,22.80
2018-02-08T03:24:43.084Z,22.60
2018-02-08T03:25:43.393Z,23.40
2018-02-08T03:26:43.092Z,23.30
2018-02-08T03:27:43.101Z,22.70
2018-02-08T03:28:43.114Z,23.00
2018-02-08T03:29:43.220Z,22.50
2018-02-08T03:30:43.182Z,23.00
2018-02-08T03:31:43.576Z,23.20
2018-02-08T03:32:43.303Z,22.70
2018-02-08T03:33:43.250Z,23.30
2018-02-08T03:34:43.158Z,23.10
2018-02-08T03:35:43.212Z,23.10
2018-02-08T03:36:43.356Z,23.90
2018-02-08T03:37:43.548Z,23.20
2018-02-08T03:39:43.340Z,23.50
2018-02-08T03:41:43.227Z,23.50
2018-02-08T03:42:43.266Z,22.90
2018-02-08T03:43:43.230Z,23.20
2018-02-08T03:44:43.232Z,23.20
2018-02-08T03:45:43.252Z,22.50
2018-02-08T03:46:43.431Z,24.70
2018-02-08T03:47:43.787Z,22.70
2018-02-08T03:48:43.667Z,23.60
2018-02-08T03:49:43.339Z,24.20
2018-02-08T03:50:43.432Z,23.20
2018-02-08T03:51:44.214Z,23.60
2018-02-08T03:52:43.401Z,23.10
2018-02-08T03:53:43.302Z,22.70
2018-02-08T03:54:43.312Z,22.30
2018-02-08T03:55:43.396Z,23.20
2018-02-08T03:56:43.733Z,23.00
2018-02-08T03:57:43.784Z,24.20
2018-02-08T03:58:43.352Z,24.00
2018-02-08T03:59:43.351Z,23.00
2018-02-08T04:00:43.357Z,24.00
2018-02-08T04:01:43.394Z,23.50
2018-02-08T04:02:43.375Z,23.70
2018-02-08T04:03:43.379Z,23.90
2018-02-08T04:04:43.471Z,23.00
2018-02-08T04:05:43.401Z,23.20
2018-02-08T04:06:43.412Z,23.70
2018-02-08T04:07:43.422Z,24.10
2018-02-08T04:08:43.555Z,24.30
2018-02-08T04:09:43.427Z,24.50
2018-02-08T04:10:43.468Z,22.90
2018-02-08T04:11:43.537Z,23.20
2018-02-08T04:12:43.515Z,24.60
2018-02-08T04:13:43.729Z,23.70
2018-02-08T04:14:43.468Z,24.30
2018-02-08T04:15:43.471Z,24.70
2018-02-08T04:16:43.629Z,23.80
2018-02-08T04:17:44.055Z,23.90
2018-02-08T04:18:43.511Z,23.20
2018-02-08T04:19:43.503Z,24.60
2018-02-08T04:20:43.570Z,23.30
2018-02-08T04:21:43.688Z,24.60
2018-02-08T04:22:43.525Z,23.50
2018-02-08T04:24:43.542Z,24.00
2018-02-08T04:25:43.728Z,23.70
2018-02-08T04:26:44.331Z,23.40
2018-02-08T04:27:43.620Z,24.30
2018-02-08T04:28:43.797Z,24.20
2018-02-08T04:29:43.741Z,23.90
2018-02-08T04:30:43.603Z,23.40
2018-02-08T04:31:43.595Z,23.80
2018-02-08T04:32:43.611Z,24.50
2018-02-08T04:33:43.608Z,24.00
2018-02-08T04:34:43.667Z,23.80
2018-02-08T04:35:43.707Z,24.50
2018-02-08T04:36:44.016Z,24.90
2018-02-08T04:37:43.796Z,23.70
2018-02-08T04:38:43.666Z,24.60
2018-02-08T04:39:43.654Z,24.30
2018-02-08T04:40:43.741Z,24.30
2018-02-08T04:41:43.670Z,24.50
2018-02-08T04:42:43.879Z,24.60
2018-02-08T04:43:43.948Z,24.80
2018-02-08T04:44:43.712Z,23.80
2018-02-08T04:46:43.880Z,24.30
2018-02-08T04:47:44.288Z,23.30
2018-02-08T04:48:43.727Z,24.50
2018-02-08T04:49:43.738Z,23.50
2018-02-08T04:51:44.163Z,23.70
2018-02-08T04:52:43.888Z,23.80
2018-02-08T04:53:43.762Z,24.10
2018-02-08T04:56:44.377Z,24.70
2018-02-08T04:57:43.995Z,25.00
2018-02-08T04:58:44.378Z,23.40
2018-02-08T04:59:43.819Z,23.30
2018-02-08T05:00:43.812Z,24.60
2018-02-08T05:01:43.826Z,25.50
2018-02-08T05:02:43.827Z,24.00
2018-02-08T05:03:43.887Z,23.70
2018-02-08T05:04:43.898Z,24.50
2018-02-08T05:05:43.858Z,24.60
2018-02-08T05:06:44.461Z,24.90
2018-02-08T05:07:43.868Z,24.50
2018-02-08T05:08:43.874Z,24.10
2018-02-08T05:09:43.882Z,25.20
2018-02-08T05:10:43.890Z,24.80
2018-02-08T05:11:44.005Z,24.50
2018-02-08T05:13:43.946Z,24.80
2018-02-08T05:14:43.933Z,25.00
2018-02-08T05:15:43.931Z,25.30
2018-02-08T05:17:44.040Z,26.20
2018-02-08T05:18:43.948Z,24.50
2018-02-08T05:19:43.955Z,24.80
2018-02-08T05:20:43.965Z,25.40
2018-02-08T05:22:44.319Z,24.40
2018-02-08T05:23:44.089Z,24.50
2018-02-08T05:24:44.108Z,25.80
2018-02-08T05:26:44.843Z,25.50
2018-02-08T05:27:44.044Z,24.70
2018-02-08T05:28:44.175Z,24.60
2018-02-08T05:29:44.983Z,25.60
2018-02-08T05:30:44.152Z,24.40
2018-02-08T05:31:44.053Z,24.60
2018-02-08T05:32:44.052Z,24.70
2018-02-08T05:33:44.062Z,24.80
2018-02-08T05:34:44.269Z,24.60
2018-02-08T05:35:44.152Z,25.60
2018-02-08T05:37:44.871Z,25.00
2018-02-08T05:38:44.393Z,25.00
2018-02-08T05:39:44.163Z,24.90
2018-02-08T05:41:44.136Z,25.50
2018-02-08T05:42:44.927Z,24.10
2018-02-08T05:43:44.302Z,25.20
2018-02-08T05:45:45.291Z,24.50
2018-02-08T05:46:44.913Z,26.00
2018-02-08T05:47:45.522Z,26.50
2018-02-08T05:49:44.181Z,26.20
2018-02-08T05:50:44.237Z,25.20
2018-02-08T05:51:44.684Z,24.30
2018-02-08T05:53:46.178Z,26.00
2018-02-08T05:54:44.384Z,25.50
2018-02-08T05:55:44.281Z,25.40
2018-02-08T05:56:44.649Z,24.50
2018-02-08T05:59:44.429Z,26.10
2018-02-08T06:00:45.139Z,26.10
2018-02-08T06:01:46.024Z,25.60
2018-02-08T06:02:44.693Z,25.50
2018-02-08T06:03:44.424Z,25.60
2018-02-08T06:04:44.306Z,26.30
2018-02-08T06:05:45.442Z,26.60
2018-02-08T06:06:44.596Z,26.40
2018-02-08T06:07:44.751Z,25.10
2018-02-08T06:08:44.689Z,25.80
2018-02-08T06:09:44.435Z,25.70
2018-02-08T06:10:45.932Z,25.60
2018-02-08T06:11:44.908Z,25.90
2018-02-08T06:12:44.478Z,26.70
2018-02-08T06:13:44.414Z,26.60
2018-02-08T06:14:44.728Z,26.00
2018-02-08T06:15:44.396Z,25.90
2018-02-08T06:16:44.507Z,26.40
2018-02-08T06:17:45.904Z,25.50
2018-02-08T06:18:45.164Z,25.50
2018-02-08T06:19:44.459Z,26.20
2018-02-08T06:20:44.516Z,26.70
2018-02-08T06:22:44.453Z,26.50
2018-02-08T06:24:44.477Z,27.60
2018-02-08T06:25:45.354Z,26.50
2018-02-08T06:27:44.719Z,26.20
2018-02-08T06:29:44.475Z,27.80
2018-02-08T06:32:45.140Z,27.40
2018-02-08T06:33:44.825Z,26.80
2018-02-08T06:34:45.323Z,26.80
2018-02-08T06:35:46.206Z,26.00
2018-02-08T06:36:44.552Z,27.20
2018-02-08T06:37:44.619Z,26.00
2018-02-08T06:38:44.546Z,25.30
2018-02-08T06:40:44.561Z,26.20
2018-02-08T06:41:44.619Z,26.90
2018-02-08T06:42:44.581Z,27.20
2018-02-08T06:43:45.222Z,26.90
2018-02-08T06:46:44.781Z,26.90
2018-02-08T06:47:44.684Z,27.60
2018-02-08T06:50:46.082Z,26.80
2018-02-08T06:51:44.718Z,26.70
2018-02-08T06:54:44.952Z,27.50
2018-02-08T06:55:46.380Z,27.70
2018-02-08T06:58:44.707Z,26.00
2018-02-08T06:59:44.901Z,26.60
2018-02-08T07:00:45.405Z,26.80
2018-02-08T07:01:45.729Z,26.30
2018-02-08T07:02:45.900Z,26.40
2018-02-08T07:03:45.829Z,26.80
2018-02-08T07:05:44.962Z,27.40
2018-02-08T07:06:45.261Z,27.10
2018-02-08T07:07:44.762Z,27.40
2018-02-08T07:08:44.972Z,28.20
2018-02-08T07:09:44.864Z,28.70
2018-02-08T07:10:44.797Z,28.10
2018-02-08T07:11:44.794Z,28.20
2018-02-08T07:12:45.386Z,28.50
2018-02-08T07:13:45.032Z,29.40
2018-02-08T07:14:44.917Z,29.60
2018-02-08T07:16:44.971Z,28.90
2018-02-08T07:17:45.467Z,29.40
2018-02-08T07:18:45.157Z,28.70
2018-02-08T07:19:44.986Z,28.80
2018-02-08T07:20:45.141Z,29.30
2018-02-08T07:23:45.077Z,29.40
2018-02-08T07:24:44.986Z,29.50
2018-02-08T07:25:45.097Z,30.60
2018-02-08T07:26:45.975Z,30.60
2018-02-08T07:27:44.954Z,29.40
2018-02-08T07:29:46.377Z,31.40
2018-02-08T07:30:45.702Z,29.90
2018-02-08T07:31:45.029Z,30.70
2018-02-08T07:32:45.903Z,30.60
2018-02-08T07:33:45.166Z,31.00
2018-02-08T07:34:44.993Z,29.00
2018-02-08T07:35:45.058Z,29.10
2018-02-08T07:36:45.129Z,28.80
2018-02-08T07:37:45.467Z,29.00
2018-02-08T07:38:44.976Z,27.60
2018-02-08T07:39:46.414Z,29.70
2018-02-08T07:41:45.122Z,30.30
2018-02-08T07:42:45.070Z,27.70
2018-02-08T07:43:46.367Z,30.10
2018-02-08T07:46:45.061Z,29.60
2018-02-08T07:48:45.535Z,29.10
2018-02-08T07:49:45.985Z,29.50
2018-02-08T07:50:45.073Z,29.80
2018-02-08T07:51:46.600Z,30.00
2018-02-08T07:53:45.439Z,29.60
2018-02-08T07:54:45.179Z,30.70
2018-02-08T07:55:45.151Z,30.40
2018-02-08T07:57:45.279Z,30.80
2018-02-08T07:59:45.247Z,30.40
2018-02-08T08:01:46.427Z,30.60
2018-02-08T08:02:46.126Z,31.70
2018-02-08T08:04:45.182Z,31.50
2018-02-08T08:06:45.180Z,31.80
2018-02-08T08:10:46.413Z,31.10
2018-02-08T08:11:46.102Z,31.30
2018-02-08T08:12:46.457Z,31.00
2018-02-08T08:13:45.361Z,30.50
2018-02-08T08:14:45.240Z,31.20
2018-02-08T08:15:46.746Z,30.20
2018-02-08T08:17:45.872Z,31.00
2018-02-08T08:18:45.736Z,30.00
2018-02-08T08:19:45.277Z,30.40
2018-02-08T08:20:45.284Z,28.90
2018-02-08T08:21:45.338Z,29.70
2018-02-08T08:22:45.299Z,28.90
2018-02-08T08:23:45.307Z,29.10
2018-02-08T08:24:45.330Z,30.60
2018-02-08T08:25:45.322Z,29.30
2018-02-08T08:26:45.337Z,29.90
2018-02-08T08:28:46.580Z,28.10
2018-02-08T08:30:45.665Z,28.00
2018-02-08T08:31:45.411Z,28.00
2018-02-08T08:32:45.389Z,28.60
2018-02-08T08:33:45.618Z,27.90
2018-02-08T08:34:45.494Z,26.90
2018-02-08T08:35:45.461Z,26.30
2018-02-08T08:36:45.409Z,27.50
2018-02-08T08:37:45.417Z,27.30
2018-02-08T08:38:45.510Z,27.60
2018-02-08T08:39:45.439Z,28.50
2018-02-08T08:40:45.498Z,27.50
2018-02-08T08:41:45.515Z,28.00
2018-02-08T08:42:45.467Z,28.70
2018-02-08T08:43:46.068Z,28.20
2018-02-08T08:44:45.487Z,27.20
2018-02-08T08:45:45.783Z,27.70
2018-02-08T08:47:45.566Z,28.30
2018-02-08T08:48:46.465Z,27.40
2018-02-08T08:49:45.512Z,28.00
2018-02-08T08:50:45.847Z,28.90
2018-02-08T08:52:45.550Z,27.70
2018-02-08T08:53:45.552Z,27.50
2018-02-08T08:54:45.556Z,28.30
2018-02-08T08:55:45.564Z,27.70
2018-02-08T08:56:45.571Z,28.20
2018-02-08T08:57:45.597Z,28.10
2018-02-08T08:58:45.586Z,29.30
2018-02-08T08:59:45.641Z,29.00
2018-02-08T09:00:46.103Z,29.30
2018-02-08T09:01:45.612Z,28.90
2018-02-08T09:02:45.618Z,29.70
2018-02-08T09:03:45.626Z,30.70
2018-02-08T09:04:45.641Z,31.20
2018-02-08T09:05:45.654Z,32.90
2018-02-08T09:08:45.703Z,31.40
2018-02-08T09:09:45.795Z,33.00
2018-02-08T09:10:46.170Z,32.70
2018-02-08T09:11:45.861Z,31.60
2018-02-08T09:12:46.397Z,31.90
2018-02-08T09:14:46.476Z,34.00
2018-02-08T09:15:46.419Z,32.60
2018-02-08T09:17:45.875Z,31.10
2018-02-08T09:18:46.159Z,31.00
2018-02-08T09:19:46.743Z,31.20
2018-02-08T09:20:47.229Z,30.80
2018-02-08T09:21:46.089Z,31.40
2018-02-08T09:22:45.954Z,31.10
2018-02-08T09:23:45.993Z,32.40
2018-02-08T09:27:47.505Z,30.20
2018-02-08T09:29:47.708Z,30.80
2018-02-08T09:31:46.944Z,30.80
2018-02-08T09:32:45.963Z,30.40
2018-02-08T09:33:46.548Z,28.90
2018-02-08T09:34:46.437Z,28.50
2018-02-08T09:35:45.922Z,30.00
2018-02-08T09:36:46.115Z,29.00
2018-02-08T09:38:46.556Z,29.30
2018-02-08T09:39:46.064Z,29.90
2018-02-08T09:41:46.789Z,28.90
2018-02-08T09:42:46.741Z,29.30
2018-02-08T09:43:47.431Z,29.00
2018-02-08T09:46:47.361Z,28.20
2018-02-08T09:49:46.706Z,35.30
2018-02-08T09:50:46.882Z,28.90
2018-02-08T09:52:47.076Z,27.40
2018-02-08T09:55:47.553Z,27.50
2018-02-08T09:57:46.242Z,28.00
2018-02-08T09:58:46.374Z,29.10
2018-02-08T09:59:47.496Z,28.10
2018-02-08T10:00:46.886Z,28.50
2018-02-08T10:01:46.780Z,29.40
2018-02-08T10:02:46.404Z,27.70
2018-02-08T10:03:46.351Z,27.10
2018-02-08T10:04:46.201Z,28.40
2018-02-08T10:05:46.612Z,31.40
2018-02-08T10:06:46.368Z,28.20
2018-02-08T10:07:46.429Z,28.70
2018-02-08T10:08:46.544Z,28.30
2018-02-08T10:09:46.425Z,28.00
2018-02-08T10:10:46.420Z,28.40
2018-02-08T10:11:46.281Z,28.50
2018-02-08T10:12:46.256Z,29.00
2018-02-08T10:13:46.310Z,29.00
2018-02-08T10:14:46.262Z,29.50
2018-02-08T10:15:46.238Z,28.80
2018-02-08T10:18:47.794Z,28.70
2018-02-08T10:20:46.499Z,27.50
2018-02-08T10:22:46.937Z,27.10
2018-02-08T10:23:46.553Z,27.30
2018-02-08T10:24:46.525Z,27.60
2018-02-08T10:26:47.389Z,25.20
2018-02-08T10:27:46.402Z,26.20
2018-02-08T10:29:46.826Z,27.50
2018-02-08T10:31:46.400Z,26.00
2018-02-08T10:33:47.866Z,27.20
2018-02-08T10:34:46.907Z,27.20
2018-02-08T10:35:46.397Z,25.60
2018-02-08T10:36:46.477Z,26.40
2018-02-08T10:37:46.417Z,25.30
2018-02-08T10:38:48.007Z,24.40
2018-02-08T10:39:47.123Z,24.80
2018-02-08T10:40:47.582Z,23.90
2018-02-08T10:41:46.892Z,25.30
2018-02-08T10:42:46.708Z,25.40
2018-02-08T10:43:47.252Z,26.80
2018-02-08T10:44:46.880Z,27.20
2018-02-08T10:45:46.939Z,27.10
2018-02-08T10:46:47.250Z,26.00
2018-02-08T10:48:47.105Z,26.90
2018-02-08T10:49:46.867Z,26.80
2018-02-08T10:50:46.852Z,26.60
2018-02-08T10:51:46.792Z,26.30
2018-02-08T10:52:46.560Z,26.70
2018-02-08T10:53:46.562Z,27.30
2018-02-08T10:54:46.565Z,26.40
2018-02-08T10:55:46.588Z,26.30
2018-02-08T10:56:46.584Z,25.70
2018-02-08T10:57:46.592Z,26.60
2018-02-08T10:58:46.616Z,26.10
2018-02-08T10:59:47.700Z,25.50
2018-02-08T11:00:47.795Z,25.80
2018-02-08T11:02:47.113Z,25.20
2018-02-08T11:03:46.717Z,25.30
2018-02-08T11:04:47.023Z,26.10
2018-02-08T11:05:46.672Z,26.00
2018-02-08T11:06:47.074Z,24.20
2018-02-08T11:07:46.701Z,24.10
2018-02-08T11:08:46.699Z,23.90
2018-02-08T11:09:46.707Z,24.70
2018-02-08T11:10:46.724Z,24.40
2018-02-08T11:11:46.732Z,25.50
2018-02-08T11:12:46.750Z,24.50
2018-02-08T11:13:46.740Z,23.90
2018-02-08T11:14:46.760Z,23.90
2018-02-08T11:15:46.771Z,25.00
2018-02-08T11:16:46.778Z,24.30
2018-02-08T11:17:46.909Z,24.70
2018-02-08T11:18:46.798Z,24.20
2018-02-08T11:19:46.834Z,24.00
2018-02-08T11:20:46.809Z,23.60
2018-02-08T11:21:46.825Z,22.80
2018-02-08T11:22:46.888Z,24.00
2018-02-08T11:23:46.834Z,23.60
2018-02-08T11:24:46.855Z,24.70
2018-02-08T11:25:46.865Z,24.30
2018-02-08T11:26:46.863Z,24.40
2018-02-08T11:27:46.875Z,24.00
2018-02-08T11:28:46.893Z,23.90
2018-02-08T11:29:46.889Z,24.40
2018-02-08T11:30:46.910Z,24.30
2018-02-08T11:31:46.921Z,25.00
2018-02-08T11:32:46.934Z,25.10
2018-02-08T11:34:46.947Z,25.00
2018-02-08T11:35:46.948Z,23.60
2018-02-08T11:36:46.965Z,22.30
2018-02-08T11:37:46.967Z,23.10
2018-02-08T11:38:46.987Z,22.70
2018-02-08T11:39:46.998Z,23.00
2018-02-08T11:40:47.005Z,23.00
2018-02-08T11:41:47.003Z,23.50
2018-02-08T11:42:47.024Z,24.40
2018-02-08T11:43:47.024Z,24.40
2018-02-08T11:44:47.046Z,24.40
2018-02-08T11:45:47.042Z,25.10
2018-02-08T11:46:47.064Z,25.10
2018-02-08T11:47:47.065Z,25.50
2018-02-08T11:48:47.070Z,23.80
2018-02-08T11:49:47.081Z,23.60
2018-02-08T11:50:47.090Z,24.50
2018-02-08T11:51:47.101Z,24.40
2018-02-08T11:52:47.221Z,25.00
2018-02-08T11:53:47.118Z,24.80
2018-02-08T11:54:47.129Z,25.80
2018-02-08T11:55:47.154Z,25.70
2018-02-08T11:56:47.150Z,25.80
2018-02-08T11:57:47.159Z,25.40
2018-02-08T11:58:47.169Z,24.90
2018-02-08T11:59:47.189Z,24.60
2018-02-08T12:00:47.199Z,25.90
2018-02-08T12:01:47.210Z,24.60
2018-02-08T12:02:47.230Z,25.80
2018-02-08T12:03:47.219Z,24.90
2018-02-08T12:04:47.229Z,26.10
2018-02-08T12:05:47.362Z,24.70
2018-02-08T12:06:47.246Z,25.00
2018-02-08T12:07:47.258Z,25.10
2018-02-08T12:08:47.270Z,24.60
2018-02-08T12:09:47.276Z,25.30
2018-02-08T12:10:47.285Z,23.70
2018-02-08T12:11:47.296Z,24.80
2018-02-08T12:12:47.506Z,25.00
2018-02-08T12:13:47.322Z,25.10
2018-02-08T12:14:47.327Z,24.20
2018-02-08T12:15:47.368Z,22.60
2018-02-08T12:16:47.346Z,23.10
2018-02-08T12:17:47.646Z,23.60
2018-02-08T12:18:47.375Z,24.00
2018-02-08T12:19:47.473Z,23.50
2018-02-08T12:20:47.390Z,22.70
2018-02-08T12:21:47.392Z,23.10
2018-02-08T12:22:47.413Z,23.10
2018-02-08T12:23:48.089Z,24.20
2018-02-08T12:25:47.445Z,23.30
2018-02-08T12:26:47.443Z,23.90
2018-02-08T12:27:47.464Z,22.00
2018-02-08T12:28:47.463Z,21.90
2018-02-08T12:29:47.477Z,22.10
2018-02-08T12:30:47.498Z,22.80
2018-02-08T12:31:47.647Z,22.50
2018-02-08T12:32:47.594Z,23.30
2018-02-08T12:33:47.522Z,23.10
2018-02-08T12:34:47.665Z,22.80
2018-02-08T12:35:47.658Z,21.70
2018-02-08T12:36:48.004Z,21.50
2018-02-08T12:37:47.623Z,22.20
2018-02-08T12:38:47.673Z,21.60
2018-02-08T12:39:47.573Z,21.60
2018-02-08T12:40:47.765Z,21.60
2018-02-08T12:41:47.592Z,21.60
2018-02-08T12:42:47.613Z,21.40
2018-02-08T12:43:47.628Z,20.70
2018-02-08T12:44:47.660Z,19.20
2018-02-08T12:45:47.646Z,19.20
2018-02-08T12:46:47.642Z,19.40
2018-02-08T12:47:47.652Z,19.00
2018-02-08T12:48:47.664Z,19.00
2018-02-08T12:49:47.684Z,20.10
2018-02-08T12:50:47.692Z,20.40
2018-02-08T12:51:47.690Z,20.10
2018-02-08T12:52:47.712Z,20.20
2018-02-08T12:53:47.766Z,20.70
2018-02-08T12:54:47.733Z,20.30
2018-02-08T12:55:47.741Z,21.60
2018-02-08T12:56:47.741Z,21.20
2018-02-08T12:57:47.762Z,21.60
2018-02-08T12:58:47.770Z,21.50
2018-02-08T12:59:48.190Z,21.00
2018-02-08T13:00:47.780Z,21.50
2018-02-08T13:01:47.814Z,23.20
2018-02-08T13:02:47.817Z,21.70
2018-02-08T13:03:47.820Z,23.60
2018-02-08T13:04:47.820Z,21.40
2018-02-08T13:05:47.828Z,22.40
2018-02-08T13:06:47.839Z,23.00
2018-02-08T13:07:47.862Z,22.30
2018-02-08T13:08:47.858Z,23.20
2018-02-08T13:09:47.867Z,21.40
2018-02-08T13:10:47.890Z,21.70
2018-02-08T13:11:47.890Z,21.10
2018-02-08T13:12:47.897Z,20.30
2018-02-08T13:13:47.940Z,20.70
2018-02-08T13:14:47.919Z,20.70
2018-02-08T13:15:47.927Z,20.40
2018-02-08T13:16:47.949Z,22.00
2018-02-08T13:17:47.947Z,21.30
2018-02-08T13:18:47.969Z,22.80
2018-02-08T13:19:48.151Z,21.80
2018-02-08T13:20:47.978Z,22.50
2018-02-08T13:21:47.988Z,22.20
2018-02-08T13:22:47.998Z,23.20
2018-02-08T13:23:48.179Z,22.10
2018-02-08T13:24:48.017Z,22.20
2018-02-08T13:25:48.038Z,21.90
2018-02-08T13:26:48.049Z,22.60
2018-02-08T13:27:48.058Z,21.70
2018-02-08T13:28:48.072Z,23.30
2018-02-08T13:29:48.066Z,23.00
2018-02-08T13:30:48.088Z,23.30
2018-02-08T13:31:48.099Z,21.40
2018-02-08T13:32:48.134Z,22.10
2018-02-08T13:33:48.123Z,22.50
2018-02-08T13:34:48.118Z,22.30
2018-02-08T13:35:48.141Z,21.90
2018-02-08T13:36:48.137Z,23.40
2018-02-08T13:37:48.158Z,22.40
2018-02-08T13:38:48.161Z,22.10
2018-02-08T13:39:48.228Z,23.30
2018-02-08T13:40:48.179Z,22.30
2018-02-08T13:41:48.198Z,21.70
2018-02-08T13:42:48.198Z,21.20
2018-02-08T13:43:48.218Z,22.30
2018-02-08T13:44:48.252Z,21.70
2018-02-08T13:45:48.228Z,22.00
2018-02-08T13:46:48.247Z,22.50
2018-02-08T13:47:48.247Z,21.30
2018-02-08T13:48:48.312Z,21.00
2018-02-08T13:49:48.279Z,22.20
2018-02-08T13:50:48.292Z,21.90
2018-02-08T13:51:48.429Z,21.60
2018-02-08T13:52:48.896Z,21.00
2018-02-08T13:53:48.335Z,22.50
2018-02-08T13:54:48.319Z,21.90
2018-02-08T13:55:48.341Z,22.30
2018-02-08T13:56:48.348Z,21.60
2018-02-08T13:57:48.348Z,22.30
2018-02-08T13:58:48.360Z,21.30
2018-02-08T13:59:48.371Z,22.50
2018-02-08T14:00:48.390Z,21.70
2018-02-08T14:01:48.390Z,21.80
2018-02-08T14:02:48.400Z,22.10
2018-02-08T14:03:48.427Z,22.20
2018-02-08T14:04:48.423Z,22.30
2018-02-08T14:05:48.431Z,21.70
2018-02-08T14:06:48.457Z,21.10
2018-02-08T14:07:48.464Z,22.30
2018-02-08T14:08:48.482Z,20.90
2018-02-08T14:09:48.473Z,20.30
2018-02-08T14:10:48.484Z,21.10
2018-02-08T14:11:49.932Z,19.60
2018-02-08T14:12:49.673Z,20.90
2018-02-08T14:13:49.447Z,20.00
2018-02-08T14:14:48.527Z,20.00
2018-02-08T14:15:48.549Z,20.00
2018-02-08T14:16:48.549Z,20.60
2018-02-08T14:17:48.568Z,21.10
2018-02-08T14:18:48.569Z,21.90
2018-02-08T14:19:48.589Z,20.50
2018-02-08T14:20:48.611Z,20.50
2018-02-08T14:21:48.600Z,22.10
2018-02-08T14:22:48.625Z,22.40
2018-02-08T14:23:48.638Z,20.90
2018-02-08T14:24:48.920Z,21.40
2018-02-08T14:25:48.642Z,22.10
2018-02-08T14:26:48.662Z,21.80
2018-02-08T14:27:48.663Z,21.60
2018-02-08T14:28:48.786Z,22.50
2018-02-08T14:29:48.698Z,23.20
2018-02-08T14:30:48.700Z,22.60
2018-02-08T14:31:48.720Z,22.70
2018-02-08T14:32:48.715Z,22.30
2018-02-08T14:33:48.726Z,22.60
2018-02-08T14:34:48.735Z,21.90
2018-02-08T14:35:48.759Z,21.20
2018-02-08T14:36:48.756Z,22.00
2018-02-08T14:37:48.779Z,22.40
2018-02-08T14:38:48.777Z,22.90
2018-02-08T14:39:48.908Z,22.40
2018-02-08T14:40:48.798Z,23.40
2018-02-08T14:41:48.807Z,23.00